Latest Weather Observations for Bundaberg

IDQ60801

Issued at 7:52 am EST Monday 3 October 2022 (issued every 10 minutes, with the page automatically refreshed every 10 minutes)

About weather observations | Map of weather stations | Latest weather observations for QLD | Other Formats
Station Details ID: 039128 Name: BUNDABERG AERO Lat: -24.91 Lon: 152.32 Height: 30.82 m
Data from the previous 72 hours. | See also: Recent months at Bundaberg
Date/Time
EST
Temp
°C
App
Temp
°C
Dew
Point
°C
Rel
Hum
%
Delta-T
°C
Wind Press
QNH
hPa
Press
MSL
hPa
Rain since
9am
mm
Dir  Spd
km/h
Gust
km/h
Spd
kts
Gust
kts
03/07:30am 16.8 14.4 13.9 83 1.6 SSE 19 28 10 15 1018.9 1018.8 4.0
03/07:00am 16.1 14.5 13.8 86 1.3 SSE 15 20 8 11 1018.4 1018.3 4.0
03/06:30am 14.8 13.3 13.2 90 0.9 SSE 13 20 7 11 1018.1 1018.0 4.0
03/06:00am 14.0 12.5 13.1 94 0.5 S 13 17 7 9 1017.7 1017.6 4.0
03/05:30am 13.8 12.3 13.0 95 0.4 SSE 13 17 7 9 1017.6 1017.5 4.0
03/05:00am 14.0 12.5 13.2 95 0.4 S 13 19 7 10 1017.4 1017.3 4.0
03/04:30am 14.0 13.0 13.4 96 0.3 S 11 17 6 9 1017.0 1016.9 4.0
03/04:00am 14.2 13.3 13.7 97 0.3 SSE 11 17 6 9 1016.7 1016.6 4.0
03/03:30am 14.4 13.6 14.1 98 0.2 S 11 15 6 8 1016.5 1016.4 4.0
03/03:00am 14.3 13.5 14.1 99 0.1 S 11 15 6 8 1016.4 1016.3 4.0
03/02:30am 14.5 14.1 14.2 98 0.2 S 9 15 5 8 1016.3 1016.2 4.0
03/02:00am 14.7 14.3 14.2 97 0.3 S 9 13 5 7 1016.3 1016.2 4.0
03/01:30am 14.9 14.2 14.4 97 0.3 S 11 15 6 8 1016.3 1016.2 4.0
03/01:00am 15.0 14.4 14.7 98 0.2 S 11 15 6 8 1016.2 1016.1 4.0
03/12:30am 15.3 14.8 14.8 97 0.3 S 11 20 6 11 1016.4 1016.3 4.0
03/12:00am 15.6 15.5 15.0 96 0.3 S 9 15 5 8 1016.6 1016.5 4.0
 
Date/Time
EST
Temp
°C
App
Temp
°C
Dew
Point
°C
Rel
Hum
%
Delta-T
°C
Wind Press
QNH
hPa
Press
MSL
hPa
Rain since
9am
mm
Dir  Spd
km/h
Gust
km/h
Spd
kts
Gust
kts
02/11:30pm 15.7 15.2 14.9 95 0.5 S 11 15 6 8 1016.4 1016.3 4.0
02/11:00pm 15.9 15.0 14.9 94 0.6 S 13 17 7 9 1016.8 1016.7 3.8
02/10:30pm 15.9 15.4 14.9 94 0.6 SSE 11 17 6 9 1016.5 1016.4 3.8
02/10:00pm 15.8 16.4 15.2 96 0.3 S 6 9 3 5 1016.7 1016.6 3.8
02/09:30pm 15.8 16.4 15.2 96 0.3 SSE 6 9 3 5 1016.5 1016.4 3.8
02/09:00pm 16.0 16.4 15.4 96 0.3 SSE 7 11 4 6 1016.5 1016.4 3.8
02/08:30pm 16.3 16.8 15.5 95 0.5 SSE 7 9 4 5 1016.4 1016.3 3.8
02/08:00pm 16.6 16.9 16.0 96 0.4 S 9 11 5 6 1016.1 1016.0 3.8
02/07:30pm 16.3 16.9 15.7 96 0.4 S 7 9 4 5 1015.9 1015.8 3.8
02/07:00pm 16.5 16.6 15.5 94 0.6 S 9 13 5 7 1015.5 1015.4 3.8
02/06:30pm 16.6 16.7 15.6 94 0.6 SSE 9 13 5 7 1015.0 1014.9 3.8
02/06:00pm 16.8 17.3 15.5 92 0.8 SSE 7 11 4 6 1014.7 1014.6 3.8
02/05:30pm 17.4 16.9 15.9 91 0.9 SE 13 17 7 9 1013.9 1013.8 3.8
02/05:00pm 17.4 17.4 16.3 93 0.7 SSE 11 17 6 9 1013.8 1013.7 3.8
02/04:30pm 17.3 16.9 16.2 93 0.7 SSE 13 19 7 10 1013.4 1013.3 3.8
02/04:00pm 17.3 17.4 16.5 95 0.5 SSE 11 15 6 8 1013.1 1013.0 3.8
02/03:30pm 17.2 17.3 16.6 96 0.4 SSE 11 15 6 8 1013.3 1013.2 3.8
02/03:12pm 17.1 16.4 16.3 95 0.5 SSE 15 20 8 11 1013.4 1013.3 3.8
02/03:00pm 17.3 16.2 16.3 94 0.6 SSE 17 24 9 13 1013.4 1013.3 3.8
02/02:59pm 17.3 16.6 16.3 94 0.6 SSE 15 24 8 13 1013.3 1013.2 3.8
02/02:30pm 17.3 17.1 16.8 97 0.3 SSE 13 20 7 11 1013.3 1013.2 3.8
02/02:00pm 17.1 17.7 16.8 98 0.2 SSE 9 17 5 9 1013.5 1013.4 3.8
02/01:56pm 17.3 17.6 17.0 98 0.2 SSE 11 17 6 9 1013.5 1013.4 3.8
02/01:30pm 17.1 16.9 16.6 97 0.3 SSE 13 17 7 9 1013.8 1013.7 3.8
02/01:07pm 17.3 17.6 17.0 98 0.2 S 11 17 6 9 1013.9 1013.8 3.8
02/01:00pm 17.3 17.6 17.0 98 0.2 SSE 11 17 6 9 1014.1 1014.0 3.8
02/12:50pm 17.4 17.7 16.9 97 0.3 S 11 13 6 7 1014.2 1014.1 3.6
02/12:32pm 17.6 18.2 16.8 95 0.5 SSW 9 13 5 7 1014.4 1014.3 2.6
02/12:31pm 17.5 18.1 16.7 95 0.5 SSW 9 13 5 7 1014.5 1014.4 2.4
02/12:30pm 17.5 18.1 16.7 95 0.5 SSW 9 13 5 7 1014.5 1014.4 2.2
02/12:00pm 17.8 17.4 16.1 90 1.0 S 13 19 7 10 1014.7 1014.6 1.4
02/11:30am 17.5 17.2 16.5 94 0.6 S 13 19 7 10 1014.8 1014.7 1.4
02/11:26am 17.4 17.5 16.4 94 0.6 S 11 17 6 9 1015.0 1014.9 1.4
02/11:00am 17.1 17.2 16.6 97 0.3 S 11 17 6 9 1015.6 1015.5 1.4
02/10:54am 17.0 17.1 16.5 97 0.3 SSE 11 17 6 9 1015.6 1015.5 1.4
02/10:34am 17.0 15.7 15.7 92 0.8 SSW 17 26 9 14 1016.1 1016.0 0.8
02/10:30am 17.1 15.7 15.6 91 0.9 SSW 17 24 9 13 1016.1 1016.0 0.6
02/10:00am 17.2 15.8 15.5 90 1.0 SSE 17 24 9 13 1015.6 1015.5 0.2
02/09:30am 16.8 14.7 15.3 91 0.9 SSE 20 28 11 15 1015.7 1015.6 0.2
02/09:00am 17.2 15.9 15.7 91 0.9 SSE 17 26 9 14 1015.8 1015.7 1.8
02/08:30am 16.5 16.0 15.9 96 0.4 SSE 13 19 7 10 1015.8 1015.7 1.8
02/08:00am 16.3 15.1 15.0 92 0.8 SSW 15 19 8 10 1016.1 1016.0 1.2
02/07:30am 16.8 16.0 15.0 89 1.0 S 13 20 7 11 1015.9 1015.8 0.6
02/07:00am 16.5 16.0 14.9 90 0.9 S 11 15 6 8 1015.4 1015.3 0.6
02/06:30am 16.5 15.6 14.9 90 0.9 S 13 17 7 9 1015.2 1015.1 0.6
02/06:00am 16.3 15.3 14.7 90 0.9 S 13 17 7 9 1015.2 1015.1 0.6
02/05:30am 16.3 16.1 14.7 90 0.9 S 9 15 5 8 1014.7 1014.6 0.6
02/05:00am 16.4 16.2 14.6 89 1.0 S 9 15 5 8 1014.4 1014.3 0.6
02/04:30am 16.5 15.9 14.5 88 1.1 S 11 19 6 10 1014.2 1014.1 0.6
02/04:00am 16.4 15.4 14.6 89 1.0 SSE 13 19 7 10 1014.1 1014.0 0.6
02/03:30am 16.4 15.9 14.8 90 0.9 S 11 15 6 8 1014.2 1014.1 0.6
02/03:00am 16.3 15.8 14.8 91 0.9 SSE 11 17 6 9 1014.0 1013.9 0.6
02/02:30am 16.5 16.0 14.9 90 0.9 SSE 11 17 6 9 1014.1 1014.0 0.6
02/02:00am 16.5 16.0 14.9 90 0.9 S 11 19 6 10 1014.3 1014.2 0.6
02/01:30am 16.1 15.1 14.6 91 0.9 S 13 17 7 9 1014.7 1014.6 0.6
02/01:00am 16.1 15.5 14.6 91 0.9 S 11 15 6 8 1014.7 1014.6 0.6
02/12:30am 16.3 15.3 14.5 89 1.0 SSE 13 19 7 10 1014.9 1014.8 0.6
02/12:00am 16.6 16.3 14.4 87 1.3 SSE 9 13 5 7 1015.3 1015.2 0.6
 
Date/Time
EST
Temp
°C
App
Temp
°C
Dew
Point
°C
Rel
Hum
%
Delta-T
°C
Wind Press
QNH
hPa
Press
MSL
hPa
Rain since
9am
mm
Dir  Spd
km/h
Gust
km/h
Spd
kts
Gust
kts
01/11:30pm 17.1 15.8 14.7 86 1.4 SSE 15 22 8 12 1015.6 1015.5 0.6
01/11:00pm 17.3 16.5 15.1 87 1.3 SSE 13 20 7 11 1016.0 1015.9 0.6
01/10:30pm 17.7 16.4 15.7 88 1.2 SSE 17 20 9 11 1015.7 1015.6 0.6
01/10:00pm 18.0 18.1 16.5 91 0.9 SSE 11 17 6 9 1015.6 1015.5 0.6
01/09:30pm 18.2 18.8 16.7 91 0.9 SSE 9 13 5 7 1015.9 1015.8 0.6
01/09:00pm 18.3 19.2 16.6 90 1.0 SE 7 13 4 7 1015.8 1015.7 0.6
01/08:30pm 18.8 17.7 16.4 86 1.4 SE 17 24 9 13 1015.6 1015.5 0.2
01/08:00pm 19.7 19.3 16.3 81 2.0 SE 13 19 7 10 1015.4 1015.3 0.2
01/07:30pm 19.4 19.7 17.0 86 1.5 ENE 11 17 6 9 1014.8 1014.7 0.2
01/07:00pm 20.7 20.3 16.1 75 2.8 ENE 13 19 7 10 1014.7 1014.6 0.0
01/06:30pm 20.6 20.1 16.0 75 2.8 ENE 13 17 7 9 1014.6 1014.5 0.0
01/06:00pm 20.7 19.0 15.7 73 3.0 E 19 24 10 13 1013.8 1013.7 0.0
01/05:30pm 21.6 19.9 15.7 69 3.5 E 19 24 10 13 1013.6 1013.5 0.0
01/05:00pm 22.2 20.2 15.5 66 4.0 ENE 20 24 11 13 1013.4 1013.3 0.0
01/04:30pm 23.2 21.0 15.0 60 4.9 ENE 20 28 11 15 1013.2 1013.1 0.0
01/04:00pm 24.3 21.9 14.4 54 5.9 ENE 20 26 11 14 1012.8 1012.7 0.0
01/03:30pm 23.7 20.9 13.3 52 6.0 E 20 28 11 15 1012.6 1012.5 0.0
01/03:00pm 25.1 22.2 13.9 49 6.6 ESE 22 28 12 15 1012.7 1012.6 0.0
01/02:30pm 25.4 23.1 14.2 50 6.6 E 19 26 10 14 1012.8 1012.7 0.0
01/02:00pm 25.1 22.7 13.9 49 6.6 ESE 19 30 10 16 1013.0 1012.9 0.0
01/01:30pm 24.7 23.1 13.9 51 6.4 E 15 22 8 12 1013.4 1013.3 0.0
01/01:00pm 25.5 23.8 13.7 48 6.9 ESE 15 24 8 13 1014.0 1013.9 0.0
01/12:30pm 25.4 24.6 12.9 45 7.3 SSE 9 15 5 8 1014.5 1014.4 0.0
01/12:00pm 24.4 23.2 12.7 48 6.7 S 11 19 6 10 1015.3 1015.2 0.0
01/11:30am 24.6 23.3 12.5 46 7.0 SE 11 19 6 10 1015.7 1015.6 0.0
01/11:00am 23.8 21.9 13.1 51 6.2 SSE 15 20 8 11 1016.3 1016.2 0.0
01/10:30am 23.1 21.1 12.7 52 6.0 SSE 15 22 8 12 1016.9 1016.8 0.0
01/10:00am 23.2 21.3 14.2 57 5.3 SSE 17 24 9 13 1017.2 1017.1 0.0
01/09:30am 22.1 20.3 13.2 57 5.1 S 15 26 8 14 1017.3 1017.2 0.0
01/09:00am 22.0 19.6 13.9 60 4.7 SSE 19 24 10 13 1017.4 1017.3 0.0
01/08:30am 21.1 18.9 13.3 61 4.5 SSE 17 24 9 13 1017.5 1017.4 0.0
01/08:00am 20.4 18.4 13.8 66 3.8 SSE 17 26 9 14 1017.6 1017.5 0.0
01/07:30am 19.5 19.5 15.2 76 2.5 SSE 9 13 5 7 1017.4 1017.3 0.0
01/07:00am 17.9 18.3 15.3 85 1.5 S 7 11 4 6 1017.0 1016.9 0.0
01/06:30am 15.8 15.6 14.7 93 0.6 SW 9 13 5 7 1016.9 1016.8 0.0
01/06:00am 13.9 13.6 13.3 96 0.3 SW 7 9 4 5 1016.6 1016.5 0.0
01/05:30am 13.9 13.4 13.7 99 0.1 SSW 9 13 5 7 1016.4 1016.3 0.0
01/05:00am 13.8 13.8 13.6 99 0.1 W 6 7 3 4 1016.0 1015.9 0.0
01/04:30am 13.4 13.0 12.9 97 0.3 NW 7 9 4 5 1015.7 1015.6 0.0
01/04:00am 13.6 13.1 12.7 94 0.5 WNW 7 11 4 6 1015.3 1015.2 0.0
01/03:30am 14.4 13.7 13.3 93 0.6 SSW 9 13 5 7 1014.9 1014.8 0.0
01/03:00am 14.6 13.6 13.5 93 0.6 SSW 11 13 6 7 1014.8 1014.7 0.0
01/02:30am 14.4 14.6 13.1 92 0.7 SSW 4 9 2 5 1015.1 1015.0 0.0
01/02:00am 14.4 14.0 13.1 92 0.7 WSW 7 7 4 4 1015.7 1015.6 0.0
01/01:30am 15.5 14.8 13.3 87 1.2 SSW 9 11 5 6 1015.8 1015.7 0.0
01/01:00am 15.8 14.9 13.8 88 1.1 S 11 13 6 7 1015.8 1015.7 0.0
01/12:30am 16.1 15.5 14.5 90 0.9 S 11 15 6 8 1016.1 1016.0 0.0
01/12:00am 15.9 15.8 13.9 88 1.1 WSW 7 9 4 5 1016.4 1016.3 0.0
 
Date/Time
EST
Temp
°C
App
Temp
°C
Dew
Point
°C
Rel
Hum
%
Delta-T
°C
Wind Press
QNH
hPa
Press
MSL
hPa
Rain since
9am
mm
Dir  Spd
km/h
Gust
km/h
Spd
kts
Gust
kts
30/11:30pm 16.8 18.2 14.4 86 1.4 CALM 0 0 0 0 1016.5 1016.4 0.0
30/11:00pm 17.2 17.6 14.7 85 1.4 WSW 6 7 3 4 1016.6 1016.5 0.0
30/10:30pm 17.2 17.6 15.2 88 1.2 WSW 7 9 4 5 1016.8 1016.7 0.0
30/10:00pm 16.6 17.0 14.8 89 1.0 WSW 6 7 3 4 1016.6 1016.5 0.0
30/09:30pm 16.1 16.0 13.9 87 1.2 W 7 9 4 5 1016.7 1016.6 0.0
30/09:29pm 16.2 16.1 14.0 87 1.2 W 7 9 4 5 1016.7 1016.6 0.0
30/09:07pm 16.5 16.6 13.8 84 1.5 NW 6 7 3 4 1016.7 1016.6 0.0
30/09:00pm 16.5 16.5 13.6 83 1.6 NW 6 7 3 4 1016.6 1016.5 0.0
30/08:30pm 17.6 18.9 14.1 80 2.0 CALM 0 0 0 0 1016.4 1016.3 0.0
30/08:00pm 18.6 18.8 14.1 75 2.6 NNE 6 9 3 5 1016.2 1016.1 0.0
30/07:30pm 19.5 19.1 14.1 71 3.1 N 9 13 5 7 1016.0 1015.9 0.0
30/07:00pm 19.7 18.8 13.6 68 3.5 NNE 11 15 6 8 1015.9 1015.8 0.0
30/06:30pm 20.4 19.2 12.9 62 4.3 NE 11 15 6 8 1015.6 1015.5 0.0
30/06:00pm 21.0 18.8 12.2 57 4.9 ENE 15 20 8 11 1015.2 1015.1 0.0
30/05:30pm 21.9 19.2 11.6 52 5.8 ENE 17 22 9 12 1014.7 1014.6 0.0
30/05:00pm 23.1 19.8 11.5 48 6.5 ENE 20 24 11 13 1014.4 1014.3 0.0
30/04:30pm 24.2 20.6 9.8 40 7.9 E 19 26 10 14 1014.1 1014.0 0.0
30/04:00pm 24.5 20.6 9.6 39 8.1 E 20 28 11 15 1014.0 1013.9 0.0
30/03:30pm 25.5 21.6 10.9 40 8.2 ESE 22 28 12 15 1013.8 1013.7 0.0
30/03:00pm 25.9 22.7 11.3 40 8.3 ESE 19 26 10 14 1014.0 1013.9 0.0
30/02:30pm 25.9 22.1 11.3 40 8.3 ESE 22 28 12 15 1014.2 1014.1 0.0
30/02:00pm 26.4 23.9 9.7 35 9.2 ENE 13 20 7 11 1014.4 1014.3 0.0
30/01:30pm 26.6 24.3 9.0 33 9.6 SW 11 19 6 10 1014.8 1014.7 0.0
30/01:00pm 26.3 23.7 9.2 34 9.4 SE 13 20 7 11 1015.2 1015.1 0.0
30/12:30pm 25.8 23.0 10.0 37 8.8 SSW 15 24 8 13 1015.6 1015.5 0.0
30/12:00pm 25.5 23.4 9.7 37 8.7 S 11 19 6 10 1016.1 1016.0 0.0
30/11:30am 24.8 22.2 9.5 38 8.4 S 13 24 7 13 1016.7 1016.6 0.0
30/11:00am 25.4 23.3 11.2 41 8.0 SSW 13 22 7 12 1017.0 1016.9 0.0
30/10:30am 23.8 21.7 9.8 41 7.7 SSW 11 22 6 12 1017.3 1017.2 0.0
30/10:00am 23.4 20.8 9.4 41 7.6 S 13 20 7 11 1017.5 1017.4 0.0
30/09:30am 22.5 20.0 9.6 44 7.0 SSW 13 19 7 10 1017.6 1017.5 0.0
30/09:00am 21.4 19.2 9.3 46 6.5 SSW 11 17 6 9 1017.3 1017.2 0.0
30/08:30am 20.0 18.3 11.2 57 4.8 SW 11 15 6 8 1017.3 1017.2 0.0
30/08:00am 18.6 16.6 10.2 58 4.5 SW 11 13 6 7 1017.1 1017.0 0.0

Other formats

Comma delimited format used in spreadsheet applications
http://www.bom.gov.au/fwo/IDQ60801/IDQ60801.94387.axf

JavaScript Object Notation format (JSON) in row-major order
http://www.bom.gov.au/fwo/IDQ60801/IDQ60801.94387.json

Data quality

Most of these data are generated automatically and are frequently updated. Quality checks on data are not normally performed. It is possible for incorrect values to appear. Refer to information at About Latest Weather Observations and please check the disclaimer before using these data.